Aberdeen, SD

2:39 PM CST on December 09, 2016 (GMT -0600)
Roosevelt Crystals Subdivision | | Change Station

Elev 1293 ft 45.45 °N, 98.46 °W | Updated 3 minutes ago

Overcast
Overcast
9.1 °F
Feels Like 2 °F
N
4.0
Wind Variable Wind from North
Gusts 9.0 mph

Today
High -- | Low -- °F
--% Chance of Precip.
Yesterday
High -- | Low -- °F
Precip. -- in
Pressure 30.65 in
Visibility 7.0 miles
Clouds Mostly Cloudy 2000 ft
Mostly Cloudy 6000 ft
Overcast 8000 ft
Windchill 2 °F
Dew Point 2 °F
Humidity 71%
Rainfall 0.00 in
Snow Depth Not available.
8:02 AM 4:50 PM
Waxing Gibbous, 77% visible
METAR KABR 091953Z AUTO 35007KT 7SM BKN020 BKN060 OVC080 M13/M20 A3054 RMK AO2 SLP377 T11331200
Pressure 30.65 in
Visibility 7.0 miles
Clouds Mostly Cloudy 2000 ft
Mostly Cloudy 6000 ft
Overcast 8000 ft
Windchill 2 °F
Dew Point 2 °F
Humidity 71%
Rainfall 0.00 in
Snow Depth Not available.
8:02 AM 4:50 PM
Waxing Gibbous, 77% visible
METAR KABR 091953Z AUTO 35007KT 7SM BKN020 BKN060 OVC080 M13/M20 A3054 RMK AO2 SLP377 T11331200

10-Day Weather Forecast

Almanac

Astronomy

Dec. 09, 2016 Rise Set
Actual Time
Civil Twilight
Nautical Twilight
Astronomical Twilight
Moon
Length of Visible Light
Length of Day
Tomorrow will be .
, % of the Moon is Illuminated

Today's Extremes

State Highs State Lows

Community

WunderPhotos

Upload Photos

1,956,517 photos uploaded!

WunderBlog® & News

Nearby

Air Quality

  Air Quality AQ Index Pollutant
Not available.

Snow Depth

Station Depth Elevation

Earthquake Activity

City Distance Mag. Time & Date
Minimum magnitude displayed is 2.5.

Coastal Water Temperatures

Place Temperature

Stations

Nearby Weather Stations

Station Location Temp. Windchill Dew Point Humidity Wind Precip. Elev Updated Type
                   

Watches & Warnings

There are currently no watches in effect.